Ratta Weather



Ratta's Current Weather

Temprature 32.78o clear sky

clear sky

Rain: 0 %

Min Temprature32.78o
Max Temprature32.78o
Humidity54
Wind Speed0.89 m/h
Sun Rise05:50:24
Sun Set18:09:14
Current Time: 18-Sep-2019 16:15:35
Lat/Lon: 33.37, 73.66




Ratta's Geo Location



Ratta's Weather Forecast

Time Overall Temp Min Temp Max Temp Humidity Wind Speed Rain
18-Sep-2019 (Wed)
17:00:00 clear sky 31.770 31.770 32.365 37 2.33 m/h 0 %
20:00:00 clear sky 26.300 26.300 26.744 43 2.04 m/h 0 %
23:00:00 clear sky 24.020 24.020 24.315 48 3 m/h 0 %
19-Sep-2019 (Thu)
02:00:00 clear sky 23.000 23.000 23.150 51 2.28 m/h 0 %
05:00:00 clear sky 23.050 23.050 23.050 51 2.7 m/h 0 %
08:00:00 clear sky 27.350 27.350 27.350 47 1.84 m/h 0 %
11:00:00 clear sky 30.950 30.950 30.950 45 3 m/h 0 %
14:00:00 clear sky 33.250 33.250 33.250 36 1.66 m/h 0 %
17:00:00 clear sky 32.550 32.550 32.550 40 0.98 m/h 0 %
20:00:00 clear sky 27.670 27.670 27.670 46 1.56 m/h 0 %
23:00:00 clear sky 24.938 24.938 24.938 55 1.24 m/h 0 %
20-Sep-2019 (Fri)
02:00:00 light rain 23.456 23.456 23.456 64 1.03 m/h 13 %
05:00:00 light rain 21.933 21.933 21.933 74 2.42 m/h 175 %
08:00:00 light rain 24.750 24.750 24.750 69 1.7 m/h 225 %
11:00:00 light rain 29.650 29.650 29.650 53 2.38 m/h 150 %
14:00:00 clear sky 31.950 31.950 31.950 40 2.2 m/h 0 %
17:00:00 clear sky 31.550 31.550 31.550 46 1.5 m/h 0 %
20:00:00 clear sky 26.850 26.850 26.850 52 0.83 m/h 0 %
23:00:00 clear sky 24.750 24.750 24.750 59 1.43 m/h 0 %
21-Sep-2019 (Sat)
02:00:00 clear sky 23.750 23.750 23.750 64 1.66 m/h 0 %
05:00:00 clear sky 23.184 23.184 23.184 65 1.56 m/h 0 %
08:00:00 light rain 25.650 25.650 25.650 63 1.98 m/h 131 %
11:00:00 light rain 29.550 29.550 29.550 52 2.44 m/h 131 %
14:00:00 clear sky 31.950 31.950 31.950 44 2.03 m/h 0 %
17:00:00 few clouds 31.850 31.850 31.850 46 1.37 m/h 0 %
20:00:00 clear sky 27.150 27.150 27.150 54 1.49 m/h 0 %
23:00:00 clear sky 25.335 25.335 25.335 61 1.42 m/h 0 %
22-Sep-2019 (Sun)
02:00:00 clear sky 24.250 24.250 24.250 65 1.61 m/h 0 %
05:00:00 clear sky 23.946 23.946 23.946 65 2 m/h 0 %
08:00:00 clear sky 27.492 27.492 27.492 57 1.84 m/h 0 %
11:00:00 clear sky 31.103 31.103 31.103 48 2.78 m/h 0 %
14:00:00 few clouds 33.150 33.150 33.150 40 2.41 m/h 0 %
17:00:00 few clouds 32.550 32.550 32.550 43 2.09 m/h 0 %
20:00:00 clear sky 27.925 27.925 27.925 50 1.19 m/h 0 %
23:00:00 clear sky 25.982 25.982 25.982 58 1.23 m/h 0 %
23-Sep-2019 (Mon)
02:00:00 clear sky 25.103 25.103 25.103 63 1.59 m/h 0 %
05:00:00 clear sky 24.677 24.677 24.677 64 2.12 m/h 0 %
08:00:00 clear sky 28.044 28.044 28.044 57 2.25 m/h 0 %
11:00:00 clear sky 31.677 31.677 31.677 47 2.96 m/h 0 %
14:00:00 few clouds 33.604 33.604 33.604 39 2.31 m/h 0 %

Famous Cities (61)